Time;durP1;ratioP1;P1;durP2;ratioP2;P2;SDS_P1;SDS_P2;PMS_P1;PMS_P2;Temp;Humidity;BMP_temperature;BMP_pressure;BME280_temperature;BME280_humidity;BME280_pressure;Samples;Min_cycle;Max_cycle;Signal;HPM_P1;HPM_P2
2023/06/05 00:01:19;;;;;;;6.22;2.85;;;;;;;;;;5043185;28;20028;-73
2023/06/05 00:04:04;;;;;;;4.13;2.40;;;;;;;;;;5047761;28;20029;-73
2023/06/05 00:06:53;;;;;;;3.63;2.20;;;;;;;;;;5046734;28;20137;-71
2023/06/05 00:09:38;;;;;;;3.97;1.98;;;;;;;;;;5033029;28;20088;-72
2023/06/05 00:12:23;;;;;;;3.58;2.20;;;;;;;;;;5036681;28;20112;-70
2023/06/05 00:15:08;;;;;;;3.40;2.05;;;;;;;;;;5031009;28;20036;-70
2023/06/05 00:17:55;;;;;;;4.30;2.13;;;;;;;;;;5048580;28;20033;-70
2023/06/05 00:20:40;;;;;;;4.43;2.63;;;;;;;;;;5027812;28;20029;-70
2023/06/05 00:23:25;;;;;;;4.47;2.05;;;;;;;;;;5035910;28;20110;-71
2023/06/05 00:26:10;;;;;;;3.35;2.05;;;;;;;;;;5061391;28;20048;-69
2023/06/05 00:28:55;;;;;;;4.93;2.78;;;;;;;;;;5044542;28;20062;-70
2023/06/05 00:31:42;;;;;;;4.80;2.80;;;;;;;;;;5043837;28;20045;-70
2023/06/05 00:34:27;;;;;;;3.33;2.22;;;;;;;;;;5027606;28;20068;-70
2023/06/05 00:37:15;;;;;;;4.13;2.13;;;;;;;;;;5037356;28;20108;-73
2023/06/05 00:40:01;;;;;;;7.03;2.25;;;;;;;;;;5042816;28;20025;-72
2023/06/05 00:42:46;;;;;;;3.75;2.35;;;;;;;;;;5044908;28;20480;-69
2023/06/05 00:45:31;;;;;;;5.50;2.20;;;;;;;;;;5031091;28;20029;-72
2023/06/05 00:48:17;;;;;;;3.88;2.30;;;;;;;;;;5033748;28;22160;-69
2023/06/05 00:51:02;;;;;;;4.18;2.13;;;;;;;;;;5047040;28;20025;-71
2023/06/05 00:53:48;;;;;;;4.10;2.17;;;;;;;;;;5044973;28;20037;-71
2023/06/05 00:56:35;;;;;;;4.40;1.92;;;;;;;;;;5030818;28;20112;-72
2023/06/05 00:59:20;;;;;;;8.52;2.00;;;;;;;;;;5031265;28;20463;-72
2023/06/05 01:02:06;;;;;;;4.30;2.28;;;;;;;;;;5041035;28;20092;-72
2023/06/05 01:04:51;;;;;;;4.00;2.10;;;;;;;;;;5042503;28;20056;-72
2023/06/05 01:07:39;;;;;;;6.40;3.08;;;;;;;;;;5034841;28;20060;-71
2023/06/05 01:10:25;;;;;;;7.18;3.20;;;;;;;;;;5033743;28;20064;-71
2023/06/05 01:13:15;;;;;;;4.20;2.42;;;;;;;;;;5035469;28;20052;-71
2023/06/05 01:16:04;;;;;;;4.30;2.60;;;;;;;;;;5043812;28;20029;-71
2023/06/05 01:18:49;;;;;;;3.45;2.10;;;;;;;;;;5043550;28;20399;-71
2023/06/05 01:21:35;;;;;;;5.15;2.75;;;;;;;;;;5030169;28;20041;-70
2023/06/05 01:24:22;;;;;;;3.47;2.35;;;;;;;;;;5032054;28;20048;-72
2023/06/05 01:27:16;;;;;;;3.65;1.88;;;;;;;;;;5043844;28;20033;-71
2023/06/05 01:30:08;;;;;;;4.50;2.25;;;;;;;;;;5042412;28;20119;-71
2023/06/05 01:32:55;;;;;;;5.90;2.20;;;;;;;;;;5017916;28;20069;-71
2023/06/05 01:35:41;;;;;;;2.65;2.00;;;;;;;;;;5038655;28;20037;-73
2023/06/05 01:38:26;;;;;;;5.95;2.63;;;;;;;;;;5044794;28;20037;-70
2023/06/05 01:41:12;;;;;;;4.28;2.20;;;;;;;;;;5043868;28;20029;-74
2023/06/05 01:43:58;;;;;;;4.50;2.30;;;;;;;;;;5030267;28;20029;-74
2023/06/05 01:46:43;;;;;;;3.75;2.17;;;;;;;;;;5032081;28;20025;-72
2023/06/05 01:49:28;;;;;;;3.80;2.28;;;;;;;;;;5041992;28;20075;-71
2023/06/05 01:52:13;;;;;;;6.03;2.60;;;;;;;;;;5031233;28;20024;-72
2023/06/05 01:55:01;;;;;;;3.35;1.88;;;;;;;;;;5042449;28;20504;-71
2023/06/05 01:57:47;;;;;;;3.70;2.25;;;;;;;;;;5032034;28;20033;-75
2023/06/05 02:00:35;;;;;;;3.25;2.10;;;;;;;;;;5044095;28;20036;-70
2023/06/05 02:03:20;;;;;;;4.28;2.30;;;;;;;;;;5044278;28;20033;-69
2023/06/05 02:06:06;;;;;;;5.05;2.15;;;;;;;;;;5044900;28;20419;-71
2023/06/05 02:08:51;;;;;;;2.88;1.98;;;;;;;;;;5027953;28;20041;-69
2023/06/05 02:11:37;;;;;;;3.67;1.80;;;;;;;;;;5035217;28;20473;-70
2023/06/05 02:14:22;;;;;;;4.63;2.47;;;;;;;;;;5044422;28;20075;-69
2023/06/05 02:17:08;;;;;;;5.18;1.98;;;;;;;;;;5043695;28;20025;-68
2023/06/05 02:19:53;;;;;;;3.33;2.13;;;;;;;;;;5030682;28;20032;-70
2023/06/05 02:22:40;;;;;;;5.15;2.20;;;;;;;;;;5032411;28;20061;-71
2023/06/05 02:25:28;;;;;;;4.82;2.42;;;;;;;;;;5045220;28;20041;-69
2023/06/05 02:28:13;;;;;;;4.05;2.50;;;;;;;;;;5026535;28;20025;-70
2023/06/05 02:30:59;;;;;;;5.97;2.40;;;;;;;;;;5039982;28;20052;-69
2023/06/05 02:33:44;;;;;;;3.67;2.33;;;;;;;;;;5032312;28;20055;-75
2023/06/05 02:36:32;;;;;;;3.45;2.25;;;;;;;;;;5036331;28;20047;-70
2023/06/05 02:39:18;;;;;;;5.13;2.58;;;;;;;;;;5058127;28;20044;-69
2023/06/05 02:42:03;;;;;;;4.97;2.10;;;;;;;;;;5041531;28;20155;-69
2023/06/05 02:44:48;;;;;;;4.72;2.10;;;;;;;;;;5029791;28;20040;-70
2023/06/05 02:47:33;;;;;;;4.82;2.08;;;;;;;;;;5034247;28;20029;-71
2023/06/05 02:50:19;;;;;;;4.80;2.33;;;;;;;;;;5041192;28;20036;-69
2023/06/05 02:53:04;;;;;;;3.30;2.20;;;;;;;;;;5044219;28;20416;-71
2023/06/05 02:55:49;;;;;;;3.83;2.42;;;;;;;;;;5013977;28;20044;-72
2023/06/05 02:58:34;;;;;;;4.90;2.03;;;;;;;;;;5031038;28;20072;-75
2023/06/05 03:01:21;;;;;;;4.65;2.22;;;;;;;;;;5043582;28;20079;-71
2023/06/05 03:04:06;;;;;;;3.17;2.00;;;;;;;;;;5045269;28;20086;-72
2023/06/05 03:06:53;;;;;;;3.83;2.25;;;;;;;;;;5043112;28;20112;-73
2023/06/05 03:09:38;;;;;;;5.43;2.70;;;;;;;;;;5025821;28;20121;-72
2023/06/05 03:12:23;;;;;;;4.50;2.17;;;;;;;;;;5033041;28;20025;-71
2023/06/05 03:15:09;;;;;;;8.18;2.95;;;;;;;;;;5043960;28;20033;-69
2023/06/05 03:17:54;;;;;;;4.25;2.30;;;;;;;;;;5037309;28;20025;-68
2023/06/05 03:20:39;;;;;;;4.00;2.15;;;;;;;;;;5029700;28;20028;-72
2023/06/05 03:23:25;;;;;;;4.93;2.05;;;;;;;;;;5028182;28;20067;-68
2023/06/05 03:26:10;;;;;;;5.18;2.10;;;;;;;;;;5043492;28;20120;-70
2023/06/05 03:28:56;;;;;;;2.88;2.05;;;;;;;;;;5042567;28;20546;-72
2023/06/05 03:31:42;;;;;;;4.07;2.28;;;;;;;;;;5042216;28;20036;-72
2023/06/05 03:34:29;;;;;;;4.78;2.53;;;;;;;;;;5032475;28;20033;-71
2023/06/05 03:37:15;;;;;;;5.15;2.38;;;;;;;;;;5035437;28;20173;-70
2023/06/05 03:40:00;;;;;;;6.35;2.70;;;;;;;;;;5042093;28;20040;-70
2023/06/05 03:42:45;;;;;;;3.78;2.38;;;;;;;;;;5039180;28;20044;-71
2023/06/05 03:45:31;;;;;;;4.90;2.70;;;;;;;;;;5040464;28;20196;-71
2023/06/05 03:48:19;;;;;;;5.43;2.45;;;;;;;;;;5031960;28;20108;-72
2023/06/05 03:51:05;;;;;;;3.00;2.00;;;;;;;;;;5043764;28;20377;-73
2023/06/05 03:53:54;;;;;;;5.90;2.50;;;;;;;;;;5041297;28;20086;-72
2023/06/05 03:56:43;;;;;;;3.65;2.42;;;;;;;;;;5040136;28;20426;-74
2023/06/05 03:59:28;;;;;;;4.85;2.70;;;;;;;;;;5027836;28;20404;-72
2023/06/05 04:02:13;;;;;;;6.07;2.42;;;;;;;;;;5040975;28;20037;-73
2023/06/05 04:05:00;;;;;;;5.22;1.90;;;;;;;;;;5045273;28;20037;-68
2023/06/05 04:07:45;;;;;;;5.18;2.50;;;;;;;;;;5041863;28;20037;-78
2023/06/05 04:10:31;;;;;;;5.38;2.35;;;;;;;;;;5033423;28;20395;-77
2023/06/05 04:13:16;;;;;;;5.50;2.28;;;;;;;;;;5035498;28;20044;-76
2023/06/05 04:16:02;;;;;;;5.10;2.63;;;;;;;;;;5043419;28;20102;-76
2023/06/05 04:18:47;;;;;;;4.80;2.63;;;;;;;;;;5056362;28;20037;-76
2023/06/05 04:21:34;;;;;;;4.32;2.40;;;;;;;;;;5026370;28;20033;-76
2023/06/05 04:24:19;;;;;;;6.40;3.22;;;;;;;;;;5034348;28;20045;-75
2023/06/05 04:27:04;;;;;;;4.07;2.30;;;;;;;;;;5060490;28;20373;-69
2023/06/05 04:29:51;;;;;;;5.30;2.83;;;;;;;;;;5042002;28;20072;-68
2023/06/05 04:32:38;;;;;;;3.88;2.30;;;;;;;;;;5022800;28;20557;-68
2023/06/05 04:35:23;;;;;;;5.75;2.50;;;;;;;;;;5039906;28;20033;-69
2023/06/05 04:38:08;;;;;;;3.95;2.50;;;;;;;;;;5050342;28;20060;-69
2023/06/05 04:40:54;;;;;;;5.78;2.80;;;;;;;;;;5037141;28;20056;-69
2023/06/05 04:43:39;;;;;;;3.38;2.20;;;;;;;;;;5039947;28;20047;-70
2023/06/05 04:46:25;;;;;;;6.28;2.70;;;;;;;;;;5035238;28;20040;-77
2023/06/05 04:49:14;;;;;;;6.35;2.58;;;;;;;;;;5036004;28;20035;-76
2023/06/05 04:52:00;;;;;;;6.70;3.42;;;;;;;;;;5046189;28;20025;-74
2023/06/05 04:54:45;;;;;;;3.95;2.85;;;;;;;;;;5044771;28;20571;-75
2023/06/05 04:57:30;;;;;;;3.67;2.30;;;;;;;;;;5046248;28;20052;-75
2023/06/05 05:00:16;;;;;;;5.43;2.28;;;;;;;;;;5037298;28;20083;-70
2023/06/05 05:03:01;;;;;;;3.53;2.50;;;;;;;;;;5043918;28;20124;-77
2023/06/05 05:05:46;;;;;;;6.05;2.28;;;;;;;;;;5042653;28;20021;-76
2023/06/05 05:08:31;;;;;;;6.03;2.88;;;;;;;;;;5040027;28;20036;-75
2023/06/05 05:11:17;;;;;;;6.38;2.83;;;;;;;;;;5029397;28;20237;-75
2023/06/05 05:14:02;;;;;;;4.45;2.38;;;;;;;;;;5034241;28;20620;-76
2023/06/05 05:16:49;;;;;;;5.32;2.63;;;;;;;;;;5047842;28;20111;-75
2023/06/05 05:19:34;;;;;;;6.80;3.33;;;;;;;;;;5048089;28;20036;-76
2023/06/05 05:22:20;;;;;;;5.20;2.72;;;;;;;;;;5027154;28;20167;-68
2023/06/05 05:25:05;;;;;;;7.13;3.13;;;;;;;;;;5034821;28;20504;-68
2023/06/05 05:27:50;;;;;;;4.25;2.47;;;;;;;;;;5053380;28;20107;-65
2023/06/05 05:30:36;;;;;;;4.38;2.55;;;;;;;;;;5048564;28;20021;-66
2023/06/05 05:33:22;;;;;;;4.93;2.58;;;;;;;;;;5028306;28;20047;-67
2023/06/05 05:36:07;;;;;;;4.63;2.33;;;;;;;;;;5029814;28;20102;-66
2023/06/05 05:38:55;;;;;;;5.80;2.72;;;;;;;;;;5047991;28;20112;-68
2023/06/05 05:41:41;;;;;;;5.90;3.10;;;;;;;;;;5038385;28;20037;-75
2023/06/05 05:44:26;;;;;;;6.72;2.70;;;;;;;;;;5024084;28;20091;-74
2023/06/05 05:47:11;;;;;;;6.40;2.50;;;;;;;;;;5037056;28;20025;-73
2023/06/05 05:49:56;;;;;;;6.32;2.65;;;;;;;;;;5038840;28;20407;-74
2023/06/05 05:52:43;;;;;;;6.60;2.33;;;;;;;;;;5049857;28;20056;-73
2023/06/05 05:55:28;;;;;;;8.45;3.10;;;;;;;;;;5048716;28;20036;-69
2023/06/05 05:58:13;;;;;;;7.03;2.80;;;;;;;;;;5033633;28;20086;-74
2023/06/05 06:00:59;;;;;;;5.88;2.40;;;;;;;;;;5024620;28;20087;-74
2023/06/05 06:03:44;;;;;;;3.25;2.20;;;;;;;;;;5042033;28;20484;-75
2023/06/05 06:06:29;;;;;;;6.95;2.85;;;;;;;;;;5043982;28;20370;-75
2023/06/05 06:09:14;;;;;;;6.35;2.72;;;;;;;;;;5035203;28;20061;-74
2023/06/05 06:12:05;;;;;;;7.07;2.92;;;;;;;;;;5034202;28;20100;-74
2023/06/05 06:14:51;;;;;;;4.40;2.55;;;;;;;;;;5033221;28;20029;-71
2023/06/05 06:17:36;;;;;;;5.65;2.65;;;;;;;;;;5032601;28;20524;-70
2023/06/05 06:20:22;;;;;;;4.25;2.60;;;;;;;;;;5030180;28;20089;-69
2023/06/05 06:23:07;;;;;;;3.95;2.47;;;;;;;;;;5027131;28;20475;-69
2023/06/05 06:25:52;;;;;;;5.57;2.80;;;;;;;;;;5031649;28;20071;-70
2023/06/05 06:28:37;;;;;;;7.05;2.80;;;;;;;;;;5020511;28;20091;-71
2023/06/05 06:31:23;;;;;;;7.20;3.05;;;;;;;;;;5038915;28;20112;-74
2023/06/05 06:34:09;;;;;;;7.38;3.08;;;;;;;;;;5032300;28;20049;-66
2023/06/05 06:36:55;;;;;;;6.28;2.75;;;;;;;;;;5035653;28;20033;-68
2023/06/05 06:39:41;;;;;;;6.25;3.65;;;;;;;;;;5044423;28;20033;-67
2023/06/05 06:42:27;;;;;;;8.23;3.15;;;;;;;;;;5044374;28;20437;-68
2023/06/05 06:45:12;;;;;;;6.95;3.20;;;;;;;;;;5032265;28;20091;-69
2023/06/05 06:47:57;;;;;;;7.45;3.20;;;;;;;;;;5030999;28;20033;-67
2023/06/05 06:50:42;;;;;;;5.07;3.30;;;;;;;;;;5032491;28;20041;-70
2023/06/05 06:53:28;;;;;;;12.32;3.95;;;;;;;;;;5040689;28;20041;-68
2023/06/05 06:56:17;;;;;;;8.32;3.17;;;;;;;;;;5026409;28;20029;-69
2023/06/05 06:59:10;;;;;;;9.00;3.53;;;;;;;;;;5012923;28;20029;-70
2023/06/05 07:02:15;;;;;;;8.20;3.42;;;;;;;;;;5030919;28;20060;-70
2023/06/05 07:05:00;;;;;;;4.05;2.50;;;;;;;;;;5056825;28;20376;-68
2023/06/05 07:07:46;;;;;;;5.78;3.20;;;;;;;;;;5040632;28;20033;-68
2023/06/05 07:10:31;;;;;;;7.28;3.00;;;;;;;;;;5024963;28;20120;-72
2023/06/05 07:13:16;;;;;;;6.35;3.15;;;;;;;;;;5024495;28;20572;-72
2023/06/05 07:16:02;;;;;;;6.45;2.92;;;;;;;;;;5042052;28;20366;-70
2023/06/05 07:18:47;;;;;;;6.85;3.88;;;;;;;;;;5046618;28;20041;-73
2023/06/05 07:21:37;;;;;;;7.07;2.78;;;;;;;;;;5025259;28;20033;-76
2023/06/05 07:24:24;;;;;;;4.93;3.17;;;;;;;;;;5038583;28;20043;-75
2023/06/05 07:27:09;;;;;;;6.90;3.05;;;;;;;;;;5044597;28;20037;-68
2023/06/05 07:29:56;;;;;;;10.05;4.38;;;;;;;;;;5037199;28;20068;-66
2023/06/05 07:32:42;;;;;;;9.63;3.40;;;;;;;;;;5014012;28;20029;-68
2023/06/05 07:35:27;;;;;;;4.85;3.03;;;;;;;;;;5032627;28;20052;-69
2023/06/05 07:38:12;;;;;;;6.88;3.50;;;;;;;;;;5037504;28;20440;-69
2023/06/05 07:40:58;;;;;;;5.68;2.80;;;;;;;;;;5042378;28;20033;-68
2023/06/05 07:43:43;;;;;;;6.70;3.17;;;;;;;;;;5038215;28;20124;-69
2023/06/05 07:46:28;;;;;;;8.82;3.72;;;;;;;;;;5034063;28;20112;-68
2023/06/05 07:49:15;;;;;;;8.13;3.47;;;;;;;;;;5032760;28;20029;-74
2023/06/05 07:52:01;;;;;;;7.57;3.47;;;;;;;;;;5043927;28;20456;-75
2023/06/05 07:54:46;;;;;;;8.95;3.42;;;;;;;;;;5040265;28;20472;-75
2023/06/05 07:57:31;;;;;;;10.85;3.83;;;;;;;;;;5029067;28;20033;-71
2023/06/05 08:00:18;;;;;;;5.88;3.53;;;;;;;;;;5023302;28;20084;-72
2023/06/05 08:03:03;;;;;;;7.22;3.67;;;;;;;;;;5042041;28;20051;-73
2023/06/05 08:05:49;;;;;;;9.00;3.47;;;;;;;;;;5042763;28;20424;-66
2023/06/05 08:08:34;;;;;;;6.15;3.50;;;;;;;;;;5043707;28;20083;-67
2023/06/05 08:11:20;;;;;;;8.50;3.42;;;;;;;;;;5030088;28;20037;-69
2023/06/05 08:14:08;;;;;;;9.32;3.58;;;;;;;;;;5035375;28;20052;-67
2023/06/05 08:16:53;;;;;;;7.55;4.03;;;;;;;;;;5045258;28;20029;-67
2023/06/05 08:19:39;;;;;;;7.40;3.42;;;;;;;;;;5043136;28;20047;-67
2023/06/05 08:22:24;;;;;;;8.52;3.80;;;;;;;;;;5027537;28;20043;-70
2023/06/05 08:25:09;;;;;;;7.35;3.60;;;;;;;;;;5034360;28;20029;-74
2023/06/05 08:27:55;;;;;;;8.52;3.30;;;;;;;;;;5024573;28;20021;-74
2023/06/05 08:30:40;;;;;;;5.40;3.08;;;;;;;;;;5045006;28;20041;-72
2023/06/05 08:33:26;;;;;;;7.25;3.97;;;;;;;;;;5027971;28;20082;-70
2023/06/05 08:36:11;;;;;;;7.80;4.10;;;;;;;;;;5033465;28;20118;-71
2023/06/05 08:38:56;;;;;;;6.60;4.05;;;;;;;;;;5028011;28;20032;-75
2023/06/05 08:41:42;;;;;;;10.43;3.78;;;;;;;;;;5045744;28;20041;-71
2023/06/05 08:44:27;;;;;;;8.43;3.70;;;;;;;;;;5046519;28;20120;-69
2023/06/05 08:47:14;;;;;;;11.48;4.32;;;;;;;;;;5032640;28;20037;-72
2023/06/05 08:50:02;;;;;;;6.00;4.30;;;;;;;;;;5033488;28;20115;-71
2023/06/05 08:52:49;;;;;;;7.65;3.97;;;;;;;;;;5043209;28;20040;-69
2023/06/05 08:55:35;;;;;;;5.53;3.30;;;;;;;;;;5028738;28;20033;-69
2023/06/05 08:58:20;;;;;;;8.25;4.35;;;;;;;;;;5030636;28;20094;-70
2023/06/05 09:01:05;;;;;;;7.85;4.45;;;;;;;;;;5033525;28;20060;-73
2023/06/05 09:03:50;;;;;;;16.42;6.03;;;;;;;;;;5043112;28;20076;-69
2023/06/05 09:06:36;;;;;;;7.72;3.80;;;;;;;;;;5041179;28;20033;-69
2023/06/05 09:09:21;;;;;;;10.13;3.45;;;;;;;;;;5046060;28;20056;-69
2023/06/05 09:12:08;;;;;;;7.10;4.25;;;;;;;;;;5030705;28;20418;-69
2023/06/05 09:14:53;;;;;;;6.95;4.22;;;;;;;;;;5038718;28;20128;-70
2023/06/05 09:17:38;;;;;;;9.15;5.05;;;;;;;;;;5044577;28;20036;-70
2023/06/05 09:20:24;;;;;;;7.75;4.38;;;;;;;;;;5038540;28;20044;-72
2023/06/05 09:23:28;;;;;;;10.00;3.70;;;;;;;;;;5031074;28;20044;-66
2023/06/05 09:26:15;;;;;;;7.38;4.07;;;;;;;;;;5045004;28;20029;-65
2023/06/05 09:29:02;;;;;;;7.30;4.47;;;;;;;;;;5044307;28;20045;-67
2023/06/05 09:31:48;;;;;;;7.20;3.80;;;;;;;;;;5044044;28;20041;-68
2023/06/05 09:34:34;;;;;;;7.57;4.15;;;;;;;;;;5017776;28;20087;-68
2023/06/05 09:37:31;;;;;;;6.65;3.53;;;;;;;;;;5053385;28;20029;-67
2023/06/05 09:40:17;;;;;;;6.32;3.50;;;;;;;;;;5041943;28;20051;-75
2023/06/05 09:43:12;;;;;;;10.52;4.28;;;;;;;;;;5046236;28;20284;-75
2023/06/05 09:45:58;;;;;;;12.05;3.65;;;;;;;;;;5046895;28;20384;-75
2023/06/05 09:48:49;;;;;;;10.32;3.58;;;;;;;;;;5046656;28;20048;-76
2023/06/05 09:51:35;;;;;;;7.88;3.88;;;;;;;;;;5045911;28;20264;-76
2023/06/05 09:54:22;;;;;;;7.63;3.72;;;;;;;;;;5044040;28;20415;-68
2023/06/05 09:57:11;;;;;;;11.38;4.28;;;;;;;;;;5030377;28;20040;-74
2023/06/05 09:59:57;;;;;;;8.07;3.92;;;;;;;;;;5037694;28;20037;-70
2023/06/05 10:02:43;;;;;;;5.22;3.63;;;;;;;;;;5037803;28;20049;-69
2023/06/05 10:05:28;;;;;;;5.45;3.88;;;;;;;;;;5043112;28;20210;-68
2023/06/05 10:08:14;;;;;;;6.95;3.47;;;;;;;;;;5025885;28;21018;-66
2023/06/05 10:11:00;;;;;;;5.80;3.45;;;;;;;;;;5030660;28;20036;-69
2023/06/05 10:13:46;;;;;;;10.85;4.55;;;;;;;;;;5041540;28;20361;-68
2023/06/05 10:16:32;;;;;;;7.47;4.45;;;;;;;;;;5042510;28;20043;-76
2023/06/05 10:19:19;;;;;;;9.32;3.50;;;;;;;;;;5028820;28;20029;-73
2023/06/05 10:22:05;;;;;;;7.70;4.70;;;;;;;;;;5029134;28;20099;-75
2023/06/05 10:24:56;;;;;;;9.45;4.50;;;;;;;;;;5040018;28;20033;-75
2023/06/05 10:28:01;;;;;;;9.85;5.05;;;;;;;;;;5040601;28;20036;-74
2023/06/05 10:31:02;;;;;;;6.75;4.10;;;;;;;;;;5027592;28;20032;-73
2023/06/05 10:34:00;;;;;;;6.00;4.18;;;;;;;;;;5033092;28;20213;-66
2023/06/05 10:37:05;;;;;;;6.15;3.78;;;;;;;;;;5038364;28;20069;-73
2023/06/05 10:39:51;;;;;;;5.18;3.65;;;;;;;;;;5020750;28;20087;-73
2023/06/05 10:42:37;;;;;;;5.45;3.50;;;;;;;;;;5020101;28;20495;-75
2023/06/05 10:45:29;;;;;;;7.78;3.80;;;;;;;;;;5039736;28;20029;-75
2023/06/05 10:48:16;;;;;;;8.35;3.47;;;;;;;;;;5059858;28;20029;-78
2023/06/05 10:51:25;;;;;;;6.40;3.50;;;;;;;;;;5029200;28;20033;-68
2023/06/05 10:54:11;;;;;;;5.05;3.15;;;;;;;;;;5031665;28;20060;-75
2023/06/05 10:56:59;;;;;;;5.28;3.33;;;;;;;;;;5036028;28;20032;-74
2023/06/05 10:59:45;;;;;;;6.67;2.93;;;;;;;;;;5022506;28;20200;-75
2023/06/05 11:02:30;;;;;;;4.97;3.10;;;;;;;;;;5032498;28;20597;-73
2023/06/05 11:05:15;;;;;;;6.22;2.97;;;;;;;;;;5036748;28;20044;-76
2023/06/05 11:08:19;;;;;;;6.07;3.38;;;;;;;;;;5045238;28;20468;-74
2023/06/05 11:11:06;;;;;;;6.55;4.32;;;;;;;;;;5050224;28;20041;-69
2023/06/05 11:13:58;;;;;;;8.73;4.18;;;;;;;;;;5034085;28;20049;-66
2023/06/05 11:16:43;;;;;;;9.00;4.30;;;;;;;;;;5046123;28;20033;-68
2023/06/05 11:19:35;;;;;;;6.25;2.95;;;;;;;;;;5045615;28;20036;-68
2023/06/05 11:22:21;;;;;;;5.57;2.92;;;;;;;;;;5010334;28;20039;-68
2023/06/05 11:25:20;;;;;;;7.72;3.30;;;;;;;;;;5022601;28;20040;-69
2023/06/05 11:28:07;;;;;;;6.32;3.40;;;;;;;;;;5032768;28;20037;-67
2023/06/05 11:30:53;;;;;;;7.45;3.63;;;;;;;;;;5039769;28;20407;-72
2023/06/05 11:33:38;;;;;;;6.40;3.40;;;;;;;;;;5011590;28;20037;-73
2023/06/05 11:36:24;;;;;;;7.70;3.10;;;;;;;;;;5026342;28;20021;-71
2023/06/05 11:39:10;;;;;;;5.68;3.35;;;;;;;;;;5038744;28;20131;-74
2023/06/05 11:41:55;;;;;;;7.43;3.40;;;;;;;;;;5038528;28;20057;-72
2023/06/05 11:44:41;;;;;;;7.07;3.50;;;;;;;;;;5048157;28;20107;-66
2023/06/05 11:47:28;;;;;;;4.55;3.20;;;;;;;;;;5034284;28;20024;-66
2023/06/05 11:50:15;;;;;;;6.60;3.15;;;;;;;;;;5058754;28;20091;-71
2023/06/05 11:53:11;;;;;;;6.18;3.50;;;;;;;;;;5046318;28;20378;-71
2023/06/05 11:58:48;;;;;;;5.75;3.40;;;;;;;;;;5036617;28;20033;-70
2023/06/05 12:01:33;;;;;;;6.20;3.08;;;;;;;;;;5045755;28;20041;-73
2023/06/05 12:04:18;;;;;;;7.13;3.60;;;;;;;;;;5048641;28;20243;-68
2023/06/05 12:07:04;;;;;;;4.57;2.88;;;;;;;;;;5049557;28;20052;-72
2023/06/05 12:09:52;;;;;;;6.82;3.25;;;;;;;;;;5038540;28;20499;-72
2023/06/05 12:12:53;;;;;;;6.60;3.13;;;;;;;;;;5040016;28;20040;-72
2023/06/05 12:15:38;;;;;;;5.45;3.25;;;;;;;;;;5052096;28;20264;-72
2023/06/05 12:18:33;;;;;;;4.93;3.22;;;;;;;;;;5050336;28;20037;-73
2023/06/05 12:21:19;;;;;;;6.85;4.20;;;;;;;;;;5054341;28;20116;-74
2023/06/05 12:24:05;;;;;;;6.93;3.00;;;;;;;;;;5039862;28;20070;-72
2023/06/05 12:26:53;;;;;;;8.60;3.55;;;;;;;;;;5046501;28;20038;-71
2023/06/05 12:29:51;;;;;;;9.10;3.10;;;;;;;;;;5052242;28;20049;-72
2023/06/05 12:32:38;;;;;;;5.03;3.10;;;;;;;;;;5037881;28;20503;-73
2023/06/05 12:35:24;;;;;;;8.70;3.25;;;;;;;;;;5045690;28;20144;-72
2023/06/05 12:38:10;;;;;;;9.52;3.40;;;;;;;;;;5049854;28;20738;-72
2023/06/05 12:40:57;;;;;;;7.18;3.40;;;;;;;;;;5042239;28;20057;-66
2023/06/05 12:43:42;;;;;;;6.43;3.72;;;;;;;;;;5039697;28;20255;-68
2023/06/05 12:46:28;;;;;;;5.72;3.40;;;;;;;;;;5045331;28;20027;-69
2023/06/05 12:49:13;;;;;;;5.05;3.15;;;;;;;;;;5051788;28;20090;-67
2023/06/05 12:52:01;;;;;;;5.20;3.13;;;;;;;;;;5046152;28;20037;-69
2023/06/05 12:54:46;;;;;;;7.43;3.60;;;;;;;;;;5048277;28;20052;-69
2023/06/05 12:57:32;;;;;;;6.93;3.80;;;;;;;;;;5034744;28;20055;-67
2023/06/05 13:00:18;;;;;;;8.55;3.47;;;;;;;;;;5045609;28;20720;-73
2023/06/05 13:03:04;;;;;;;5.63;3.20;;;;;;;;;;5041401;28;20041;-71
2023/06/05 13:05:49;;;;;;;6.95;3.67;;;;;;;;;;5040258;28;20035;-69
2023/06/05 13:08:34;;;;;;;5.90;4.00;;;;;;;;;;5031892;28;20416;-69
2023/06/05 13:11:21;;;;;;;14.65;5.38;;;;;;;;;;5024680;28;20055;-71
2023/06/05 13:14:06;;;;;;;6.35;3.50;;;;;;;;;;5039734;28;20041;-71
2023/06/05 13:16:51;;;;;;;6.55;3.75;;;;;;;;;;5043233;28;20484;-64
2023/06/05 13:19:36;;;;;;;8.23;3.78;;;;;;;;;;5026131;28;20071;-71
2023/06/05 13:22:22;;;;;;;6.40;3.30;;;;;;;;;;5028698;28;20086;-70
2023/06/05 13:25:08;;;;;;;8.38;3.90;;;;;;;;;;5044009;28;20492;-71
2023/06/05 13:27:53;;;;;;;6.22;4.18;;;;;;;;;;5040645;28;20025;-72
2023/06/05 13:30:38;;;;;;;6.72;3.58;;;;;;;;;;5024476;28;20051;-71
2023/06/05 13:33:24;;;;;;;6.60;3.42;;;;;;;;;;5034819;28;20408;-72
2023/06/05 13:36:10;;;;;;;4.97;3.65;;;;;;;;;;5041051;28;20128;-74
2023/06/05 13:38:55;;;;;;;8.82;3.80;;;;;;;;;;5043858;28;20033;-69
2023/06/05 13:41:40;;;;;;;8.30;3.42;;;;;;;;;;5032392;28;20025;-69
2023/06/05 13:44:25;;;;;;;5.32;3.63;;;;;;;;;;5031008;28;20484;-68
2023/06/05 13:47:10;;;;;;;6.00;3.83;;;;;;;;;;5030626;28;20056;-69
2023/06/05 13:49:57;;;;;;;7.47;4.18;;;;;;;;;;5044401;28;20033;-69
2023/06/05 13:52:42;;;;;;;6.60;4.05;;;;;;;;;;5040868;28;20035;-68
2023/06/05 13:55:28;;;;;;;6.70;3.35;;;;;;;;;;5030076;28;20041;-71
2023/06/05 13:58:13;;;;;;;6.90;3.70;;;;;;;;;;5038375;28;20087;-69
2023/06/05 14:00:59;;;;;;;7.28;3.22;;;;;;;;;;5042909;28;20021;-69
2023/06/05 14:03:46;;;;;;;6.55;3.70;;;;;;;;;;5039215;28;20067;-70
2023/06/05 14:06:32;;;;;;;5.72;3.63;;;;;;;;;;5054788;28;20044;-68
2023/06/05 14:09:18;;;;;;;6.05;3.65;;;;;;;;;;5033566;28;20351;-71
2023/06/05 14:12:04;;;;;;;5.38;3.83;;;;;;;;;;5040425;28;20041;-66
2023/06/05 14:14:50;;;;;;;5.75;3.40;;;;;;;;;;5041717;28;20037;-73
2023/06/05 14:17:35;;;;;;;6.95;3.78;;;;;;;;;;5045551;28;20044;-71
2023/06/05 14:20:20;;;;;;;6.70;3.67;;;;;;;;;;5028519;28;20448;-71
2023/06/05 14:23:05;;;;;;;5.90;3.38;;;;;;;;;;5036251;28;20037;-69
2023/06/05 14:25:51;;;;;;;6.78;3.67;;;;;;;;;;5039283;28;20372;-69
2023/06/05 14:28:36;;;;;;;6.75;3.90;;;;;;;;;;5038461;28;20041;-67
2023/06/05 14:31:25;;;;;;;5.50;3.42;;;;;;;;;;5026585;28;20029;-73
2023/06/05 14:34:10;;;;;;;7.45;3.70;;;;;;;;;;5026912;28;20045;-67
2023/06/05 14:36:55;;;;;;;7.57;4.05;;;;;;;;;;5042931;28;20186;-66
2023/06/05 14:39:41;;;;;;;11.70;4.10;;;;;;;;;;5048740;28;20559;-67
2023/06/05 14:42:26;;;;;;;5.53;3.63;;;;;;;;;;5036051;28;20033;-67
2023/06/05 14:45:11;;;;;;;6.70;3.78;;;;;;;;;;5025989;28;20480;-66
2023/06/05 14:47:56;;;;;;;8.43;3.85;;;;;;;;;;5035605;28;20661;-66
2023/06/05 14:50:42;;;;;;;6.35;3.17;;;;;;;;;;5042394;28;20040;-72
2023/06/05 14:53:27;;;;;;;7.03;3.47;;;;;;;;;;5038250;28;20036;-77
2023/06/05 14:56:12;;;;;;;7.78;3.55;;;;;;;;;;5028370;28;20087;-75
2023/06/05 14:58:58;;;;;;;6.07;3.40;;;;;;;;;;5027187;28;20110;-75
2023/06/05 15:01:43;;;;;;;7.10;3.10;;;;;;;;;;5039595;28;20101;-75
2023/06/05 15:04:29;;;;;;;6.68;3.95;;;;;;;;;;5026690;28;20036;-75
2023/06/05 15:07:18;;;;;;;4.82;3.25;;;;;;;;;;5039461;28;20038;-69
2023/06/05 15:10:04;;;;;;;7.30;4.40;;;;;;;;;;5028610;28;20064;-73
2023/06/05 15:12:55;;;;;;;8.43;4.05;;;;;;;;;;5041276;28;20037;-73
2023/06/05 15:15:41;;;;;;;5.03;3.60;;;;;;;;;;5044290;28;20029;-73
2023/06/05 15:18:26;;;;;;;6.35;3.03;;;;;;;;;;5032354;28;20056;-72
2023/06/05 15:21:11;;;;;;;5.38;3.55;;;;;;;;;;5026468;28;20391;-72
2023/06/05 15:23:57;;;;;;;4.63;2.95;;;;;;;;;;5036118;28;20072;-75
2023/06/05 15:26:42;;;;;;;4.60;3.35;;;;;;;;;;5030603;28;20045;-67
2023/06/05 15:29:27;;;;;;;7.47;3.45;;;;;;;;;;5051058;28;20033;-76
2023/06/05 15:32:13;;;;;;;5.80;3.72;;;;;;;;;;5021153;28;20033;-76
2023/06/05 15:34:58;;;;;;;6.07;2.80;;;;;;;;;;5032034;28;20033;-75
2023/06/05 15:37:43;;;;;;;7.18;3.83;;;;;;;;;;5047174;28;20081;-75
2023/06/05 15:40:28;;;;;;;6.25;2.75;;;;;;;;;;5045488;28;20358;-76
2023/06/05 15:43:13;;;;;;;5.88;3.13;;;;;;;;;;5057665;28;20045;-77
2023/06/05 15:45:59;;;;;;;5.57;3.15;;;;;;;;;;5037725;28;20059;-67
2023/06/05 15:48:44;;;;;;;5.47;3.20;;;;;;;;;;5034933;28;20029;-72
2023/06/05 15:51:30;;;;;;;4.18;2.95;;;;;;;;;;5044300;28;20025;-72
2023/06/05 15:54:15;;;;;;;6.85;3.53;;;;;;;;;;5057057;28;20032;-72
2023/06/05 15:57:06;;;;;;;4.57;3.15;;;;;;;;;;5033318;28;20388;-72
2023/06/05 15:59:51;;;;;;;5.00;3.05;;;;;;;;;;5037203;28;20091;-71
2023/06/05 16:02:37;;;;;;;5.40;3.65;;;;;;;;;;5044975;28;20032;-75
2023/06/05 16:05:22;;;;;;;5.30;3.10;;;;;;;;;;5025840;28;20084;-71
2023/06/05 16:08:08;;;;;;;7.97;3.58;;;;;;;;;;5017899;28;20033;-69
2023/06/05 16:10:53;;;;;;;5.95;3.40;;;;;;;;;;5044312;28;20024;-69
2023/06/05 16:13:39;;;;;;;4.43;2.90;;;;;;;;;;5050259;28;20094;-70
2023/06/05 16:16:24;;;;;;;5.40;3.28;;;;;;;;;;5053505;28;20407;-69
2023/06/05 16:19:10;;;;;;;4.13;3.20;;;;;;;;;;5048126;28;20064;-69
2023/06/05 16:21:57;;;;;;;6.55;3.47;;;;;;;;;;5030007;28;20060;-72
2023/06/05 16:24:42;;;;;;;5.88;3.35;;;;;;;;;;5046702;28;20040;-78
2023/06/05 16:27:27;;;;;;;6.30;2.88;;;;;;;;;;5038406;28;20033;-75
2023/06/05 16:30:13;;;;;;;7.82;3.75;;;;;;;;;;5036960;28;20447;-75
2023/06/05 16:32:58;;;;;;;5.30;3.03;;;;;;;;;;5026443;28;20021;-76
2023/06/05 16:35:43;;;;;;;4.25;2.97;;;;;;;;;;5037901;28;20037;-76
2023/06/05 16:38:28;;;;;;;6.22;3.13;;;;;;;;;;5046946;28;20034;-76
2023/06/05 16:41:14;;;;;;;7.68;3.33;;;;;;;;;;5050796;28;20040;-71